ITY5FD EKCH-LIMC
Flight info
| Callsign | ITY5FD |
|---|---|
| Flight time | N/A |
| Altitude | 36000 |
| Route | NEXEN T503 MICOS DCT RAMAR/N0444F370 DCT ABGUS/N0443F380 DCT IBAGA DCT DKB N869 TEDGO DCT SONOM/N0446F370 DCT GERSA DCT SOSON DCT DEGAD Z424 BASGO/N0456F290 Z424 AKASU/N0388F190 Z424 RIXUV |
| Aircraft | A320/M-SDE3FGHIRWY/LB1 |
Departure
| Time | 2026-04-25 19:37 |
|---|---|
| Airport | Copenhagen Kastrup Airport (EKCH) |
Arrival
| Time | N/A |
|---|---|
| Airport | Milan Malpensa International Airport (LIMC) |
| Time | Latitude | Longitude | Altitude | Speed | Heading |
|---|---|---|---|---|---|
| 2026-04-25 19:17 | 55.62510 | 12.65683 | 19 ft | 0 kts | 3° |
| 2026-04-25 19:26 | 55.62505 | 12.65682 | 17 ft | 4 kts | 1° |
| 2026-04-25 19:27 | 55.62479 | 12.65688 | 31 ft | 4 kts | 335° |
| 2026-04-25 19:27 | 55.62471 | 12.65695 | 19 ft | 4 kts | 324° |
| 2026-04-25 19:27 | 55.62450 | 12.65757 | 19 ft | 4 kts | 265° |
| 2026-04-25 19:27 | 55.62454 | 12.65787 | 18 ft | 4 kts | 181° |
| 2026-04-25 19:28 | 55.62448 | 12.65817 | 17 ft | 4 kts | 101° |
| 2026-04-25 19:28 | 55.62448 | 12.65829 | 16 ft | 0 kts | 89° |
| 2026-04-25 19:28 | 55.62448 | 12.65828 | 16 ft | 0 kts | 89° |
| 2026-04-25 19:31 | 55.62448 | 12.65858 | 15 ft | 11 kts | 89° |
| 2026-04-25 19:31 | 55.62494 | 12.66063 | 17 ft | 23 kts | 40° |
| 2026-04-25 19:32 | 55.62479 | 12.66238 | 16 ft | 6 kts | 166° |
| 2026-04-25 19:32 | 55.62411 | 12.66146 | 16 ft | 24 kts | 220° |
| 2026-04-25 19:32 | 55.62302 | 12.65868 | 15 ft | 32 kts | 264° |
| 2026-04-25 19:32 | 55.62300 | 12.65738 | 15 ft | 30 kts | 269° |
| 2026-04-25 19:33 | 55.62292 | 12.65282 | 22 ft | 18 kts | 266° |
| 2026-04-25 19:33 | 55.62194 | 12.65157 | 24 ft | 22 kts | 210° |
| 2026-04-25 19:33 | 55.62046 | 12.64993 | 21 ft | 27 kts | 213° |
| 2026-04-25 19:33 | 55.61880 | 12.64800 | 19 ft | 30 kts | 213° |
| 2026-04-25 19:34 | 55.61704 | 12.64595 | 19 ft | 31 kts | 213° |
| 2026-04-25 19:34 | 55.61520 | 12.64384 | 21 ft | 32 kts | 211° |
| 2026-04-25 19:34 | 55.61325 | 12.64165 | 18 ft | 34 kts | 212° |
| 2026-04-25 19:34 | 55.61125 | 12.63931 | 18 ft | 34 kts | 214° |
| 2026-04-25 19:35 | 55.60927 | 12.63703 | 21 ft | 34 kts | 213° |
| 2026-04-25 19:35 | 55.60724 | 12.63472 | 19 ft | 35 kts | 214° |
| 2026-04-25 19:35 | 55.60553 | 12.63242 | 22 ft | 23 kts | 214° |
| 2026-04-25 19:35 | 55.60437 | 12.63315 | 25 ft | 17 kts | 133° |
| 2026-04-25 19:36 | 55.60433 | 12.63501 | 25 ft | 21 kts | 46° |
| 2026-04-25 19:36 | 55.60637 | 12.63817 | 27 ft | 72 kts | 41° |
| 2026-04-25 19:36 | 55.61177 | 12.64651 | 20 ft | 134 kts | 40° |
| 2026-04-25 19:36 | 55.61984 | 12.65900 | 259 ft | 159 kts | 33° |
| 2026-04-25 19:37 | 55.62810 | 12.67202 | 968 ft | 159 kts | 36° |
| 2026-04-25 19:37 | 55.63648 | 12.68524 | 1571 ft | 170 kts | 33° |
| 2026-04-25 19:37 | 55.64609 | 12.70008 | 1954 ft | 197 kts | 33° |
| 2026-04-25 19:37 | 55.65715 | 12.71679 | 2472 ft | 221 kts | 34° |
| 2026-04-25 19:38 | 55.66888 | 12.73638 | 3128 ft | 244 kts | 52° |
| 2026-04-25 19:38 | 55.67276 | 12.76646 | 4082 ft | 266 kts | 92° |
| 2026-04-25 19:38 | 55.66467 | 12.79620 | 5084 ft | 284 kts | 131° |
| 2026-04-25 19:38 | 55.64715 | 12.81309 | 6015 ft | 297 kts | 169° |
| 2026-04-25 19:39 | 55.62644 | 12.81137 | 6834 ft | 302 kts | 193° |
| 2026-04-25 19:39 | 55.60642 | 12.80060 | 7696 ft | 300 kts | 212° |
| 2026-04-25 19:39 | 55.58945 | 12.78007 | 8623 ft | 294 kts | 225° |
| 2026-04-25 19:39 | 55.57347 | 12.75732 | 9601 ft | 295 kts | 226° |
| 2026-04-25 19:40 | 55.55747 | 12.73420 | 10410 ft | 297 kts | 227° |
| 2026-04-25 19:40 | 55.54699 | 12.71903 | 11141 ft | 292 kts | 229° |
| 2026-04-25 19:40 | 55.52627 | 12.68905 | 12221 ft | 295 kts | 230° |
| 2026-04-25 19:40 | 55.50985 | 12.66510 | 12546 ft | 318 kts | 230° |
| 2026-04-25 19:41 | 55.49827 | 12.64814 | 12698 ft | 333 kts | 229° |
| 2026-04-25 19:41 | 55.47967 | 12.62105 | 12884 ft | 357 kts | 228° |
| 2026-04-25 19:41 | 55.45992 | 12.59258 | 13259 ft | 372 kts | 228° |
| 2026-04-25 19:41 | 55.44646 | 12.57342 | 13678 ft | 377 kts | 228° |
| 2026-04-25 19:42 | 55.41206 | 12.52493 | 14705 ft | 385 kts | 229° |
| 2026-04-25 19:42 | 55.39783 | 12.50489 | 15126 ft | 388 kts | 230° |
| 2026-04-25 19:42 | 55.37689 | 12.47534 | 15765 ft | 392 kts | 230° |
| 2026-04-25 19:42 | 55.35555 | 12.44515 | 16395 ft | 396 kts | 231° |
| 2026-04-25 19:43 | 55.33374 | 12.41425 | 17036 ft | 400 kts | 232° |
| 2026-04-25 19:43 | 55.31202 | 12.38343 | 17650 ft | 404 kts | 232° |
| 2026-04-25 19:43 | 55.29026 | 12.35258 | 18261 ft | 408 kts | 233° |
| 2026-04-25 19:43 | 55.26808 | 12.32118 | 18782 ft | 412 kts | 233° |
| 2026-04-25 19:44 | 55.24555 | 12.28935 | 19304 ft | 417 kts | 233° |
| 2026-04-25 19:44 | 55.22279 | 12.25725 | 19803 ft | 422 kts | 233° |
| 2026-04-25 19:44 | 55.19975 | 12.22487 | 20320 ft | 426 kts | 233° |
| 2026-04-25 19:44 | 55.17649 | 12.19224 | 20805 ft | 431 kts | 233° |
| 2026-04-25 19:45 | 55.15305 | 12.15942 | 21177 ft | 433 kts | 233° |
| 2026-04-25 19:45 | 55.12935 | 12.12629 | 21658 ft | 437 kts | 233° |
| 2026-04-25 19:45 | 55.10548 | 12.09295 | 22132 ft | 441 kts | 233° |
| 2026-04-25 19:45 | 55.08162 | 12.05967 | 22590 ft | 445 kts | 233° |
| 2026-04-25 19:46 | 55.05731 | 12.02584 | 23043 ft | 449 kts | 233° |
| 2026-04-25 19:46 | 55.03279 | 11.99177 | 23483 ft | 452 kts | 233° |
| 2026-04-25 19:46 | 55.00807 | 11.95744 | 23854 ft | 456 kts | 233° |
| 2026-04-25 19:46 | 54.98308 | 11.92281 | 24216 ft | 459 kts | 233° |
| 2026-04-25 19:47 | 54.95799 | 11.88817 | 24566 ft | 462 kts | 232° |
| 2026-04-25 19:47 | 54.93276 | 11.85338 | 24871 ft | 464 kts | 232° |
| 2026-04-25 19:47 | 54.90734 | 11.81842 | 25275 ft | 466 kts | 232° |
| 2026-04-25 19:47 | 54.88181 | 11.78354 | 25629 ft | 470 kts | 230° |
| 2026-04-25 19:48 | 54.85312 | 11.75447 | 25957 ft | 499 kts | 213° |
| 2026-04-25 19:48 | 54.81862 | 11.73843 | 26277 ft | 524 kts | 198° |
| 2026-04-25 19:48 | 54.78244 | 11.72893 | 26598 ft | 528 kts | 197° |
| 2026-04-25 19:48 | 54.74588 | 11.71997 | 26915 ft | 531 kts | 196° |
| 2026-04-25 19:49 | 54.70906 | 11.71127 | 27222 ft | 534 kts | 196° |
| 2026-04-25 19:49 | 54.68459 | 11.70554 | 27369 ft | 534 kts | 195° |
| 2026-04-25 19:49 | 54.63580 | 11.69402 | 27919 ft | 533 kts | 196° |
| 2026-04-25 19:49 | 54.59898 | 11.68508 | 28233 ft | 534 kts | 196° |
| 2026-04-25 19:50 | 54.52516 | 11.66676 | 28760 ft | 537 kts | 196° |
| 2026-04-25 19:50 | 54.48847 | 11.65764 | 29016 ft | 539 kts | 196° |
| 2026-04-25 19:50 | 54.45102 | 11.64842 | 29255 ft | 541 kts | 196° |
| 2026-04-25 19:51 | 54.41382 | 11.63935 | 29569 ft | 537 kts | 195° |
| 2026-04-25 19:51 | 54.37696 | 11.63047 | 30103 ft | 531 kts | 195° |
| 2026-04-25 19:51 | 54.34086 | 11.62180 | 30452 ft | 528 kts | 196° |
| 2026-04-25 19:51 | 54.30455 | 11.61300 | 30762 ft | 527 kts | 196° |
| 2026-04-25 19:52 | 54.26817 | 11.60412 | 31057 ft | 526 kts | 196° |
| 2026-04-25 19:52 | 54.23195 | 11.59526 | 31342 ft | 525 kts | 196° |
| 2026-04-25 19:52 | 54.19571 | 11.58641 | 31632 ft | 525 kts | 196° |
| 2026-04-25 19:52 | 54.15968 | 11.57768 | 31957 ft | 521 kts | 195° |
| 2026-04-25 19:53 | 54.12392 | 11.56907 | 32331 ft | 518 kts | 195° |
| 2026-04-25 19:53 | 54.08826 | 11.56050 | 32644 ft | 517 kts | 195° |
| 2026-04-25 19:53 | 54.01003 | 11.54170 | 33281 ft | 516 kts | 195° |
| 2026-04-25 19:54 | 53.97425 | 11.53311 | 33576 ft | 516 kts | 195° |
| 2026-04-25 19:54 | 53.93914 | 11.52474 | 33805 ft | 515 kts | 195° |
| 2026-04-25 19:54 | 53.90370 | 11.51632 | 34154 ft | 512 kts | 194° |
| 2026-04-25 19:54 | 53.89180 | 11.51350 | 34261 ft | 512 kts | 194° |
| 2026-04-25 19:55 | 53.83328 | 11.49963 | 34752 ft | 509 kts | 194° |
| 2026-04-25 19:55 | 53.79825 | 11.49129 | 35028 ft | 507 kts | 194° |
| 2026-04-25 19:55 | 53.76329 | 11.48297 | 35298 ft | 506 kts | 194° |
| 2026-04-25 19:55 | 53.72839 | 11.47473 | 35552 ft | 505 kts | 194° |
| 2026-04-25 19:56 | 53.69401 | 11.46663 | 35753 ft | 504 kts | 194° |
| 2026-04-25 19:56 | 53.65941 | 11.45848 | 35992 ft | 501 kts | 194° |
| 2026-04-25 19:56 | 53.62487 | 11.45036 | 36041 ft | 499 kts | 194° |
| 2026-04-25 19:57 | 53.55626 | 11.43421 | 36049 ft | 497 kts | 194° |
| 2026-04-25 19:57 | 53.48752 | 11.41802 | 36054 ft | 497 kts | 194° |
| 2026-04-25 19:58 | 53.41952 | 11.40210 | 36063 ft | 495 kts | 194° |
| 2026-04-25 19:58 | 53.35113 | 11.38632 | 36053 ft | 495 kts | 194° |
| 2026-04-25 19:59 | 53.28329 | 11.37055 | 36058 ft | 495 kts | 194° |
| 2026-04-25 19:59 | 53.22613 | 11.35725 | 36054 ft | 494 kts | 194° |
| 2026-04-25 20:00 | 53.15801 | 11.34152 | 36063 ft | 499 kts | 194° |
| 2026-04-25 20:00 | 53.08893 | 11.32573 | 36062 ft | 500 kts | 194° |
| 2026-04-25 20:01 | 52.98566 | 11.30231 | 36065 ft | 500 kts | 194° |
| 2026-04-25 20:01 | 52.91659 | 11.28642 | 36065 ft | 500 kts | 194° |
| 2026-04-25 20:02 | 52.84794 | 11.27084 | 36070 ft | 500 kts | 194° |
| 2026-04-25 20:02 | 52.77897 | 11.25524 | 36076 ft | 500 kts | 194° |
| 2026-04-25 20:03 | 52.70985 | 11.23953 | 36043 ft | 499 kts | 194° |
| 2026-04-25 20:03 | 52.64177 | 11.22424 | 36082 ft | 494 kts | 194° |
| 2026-04-25 20:04 | 52.57365 | 11.20898 | 36084 ft | 494 kts | 193° |
| 2026-04-25 20:04 | 52.50544 | 11.19377 | 36090 ft | 494 kts | 193° |
| 2026-04-25 20:05 | 52.43768 | 11.17866 | 36097 ft | 492 kts | 193° |
| 2026-04-25 20:05 | 52.37000 | 11.16362 | 36094 ft | 490 kts | 193° |
| 2026-04-25 20:06 | 52.30234 | 11.14865 | 36090 ft | 490 kts | 193° |
| 2026-04-25 20:06 | 52.23463 | 11.13372 | 36055 ft | 490 kts | 193° |
| 2026-04-25 20:07 | 52.16702 | 11.11890 | 36095 ft | 489 kts | 193° |
| 2026-04-25 20:07 | 52.09951 | 11.10411 | 36100 ft | 492 kts | 193° |
| 2026-04-25 20:08 | 52.03176 | 11.08928 | 36099 ft | 494 kts | 193° |
| 2026-04-25 20:08 | 51.96382 | 11.07453 | 36102 ft | 495 kts | 192° |
| 2026-04-25 20:09 | 51.89548 | 11.05965 | 36098 ft | 495 kts | 192° |
| 2026-04-25 20:09 | 51.82730 | 11.04447 | 36098 ft | 494 kts | 193° |
| 2026-04-25 20:10 | 51.75929 | 11.02787 | 36091 ft | 494 kts | 193° |
| 2026-04-25 20:10 | 51.69127 | 11.01078 | 36097 ft | 494 kts | 193° |
| 2026-04-25 20:11 | 51.62368 | 10.99414 | 36098 ft | 494 kts | 193° |
| 2026-04-25 20:11 | 51.55557 | 10.97788 | 36098 ft | 494 kts | 193° |
| 2026-04-25 20:12 | 51.48754 | 10.96172 | 36101 ft | 491 kts | 193° |
| 2026-04-25 20:12 | 51.43134 | 10.94838 | 36098 ft | 490 kts | 193° |
| 2026-04-25 20:13 | 51.35279 | 10.92973 | 36098 ft | 490 kts | 193° |
| 2026-04-25 20:13 | 51.28534 | 10.91370 | 36090 ft | 489 kts | 193° |
| 2026-04-25 20:14 | 51.21854 | 10.89774 | 36105 ft | 488 kts | 193° |
| 2026-04-25 20:14 | 51.15129 | 10.88180 | 36107 ft | 488 kts | 193° |
| 2026-04-25 20:15 | 51.08406 | 10.86610 | 36111 ft | 488 kts | 193° |
| 2026-04-25 20:15 | 51.01668 | 10.85032 | 36111 ft | 488 kts | 193° |
| 2026-04-25 20:16 | 50.94986 | 10.83470 | 36111 ft | 488 kts | 193° |
| 2026-04-25 20:16 | 50.88263 | 10.81893 | 36112 ft | 488 kts | 193° |
| 2026-04-25 20:17 | 50.81541 | 10.80320 | 36101 ft | 488 kts | 193° |
| 2026-04-25 20:17 | 50.74849 | 10.78763 | 36113 ft | 487 kts | 193° |
| 2026-04-25 20:18 | 50.68127 | 10.77214 | 36115 ft | 487 kts | 193° |
| 2026-04-25 20:18 | 50.61409 | 10.75656 | 36120 ft | 487 kts | 193° |
| 2026-04-25 20:19 | 50.54821 | 10.74141 | 36128 ft | 487 kts | 193° |
| 2026-04-25 20:19 | 50.48096 | 10.72609 | 36124 ft | 488 kts | 193° |
| 2026-04-25 20:20 | 50.41416 | 10.71084 | 36122 ft | 488 kts | 193° |
| 2026-04-25 20:20 | 50.34676 | 10.69544 | 36123 ft | 487 kts | 193° |
| 2026-04-25 20:21 | 50.27962 | 10.68010 | 36117 ft | 486 kts | 193° |
| 2026-04-25 20:21 | 50.21297 | 10.66495 | 36121 ft | 486 kts | 192° |
| 2026-04-25 20:22 | 50.16845 | 10.65486 | 36120 ft | 486 kts | 192° |
| 2026-04-25 20:22 | 50.07906 | 10.63474 | 36122 ft | 486 kts | 192° |
| 2026-04-25 20:23 | 50.01240 | 10.61928 | 36113 ft | 484 kts | 197° |
| 2026-04-25 20:23 | 49.98085 | 10.60293 | 36122 ft | 473 kts | 211° |
| 2026-04-25 20:23 | 49.95282 | 10.57692 | 36117 ft | 468 kts | 218° |
| 2026-04-25 20:24 | 49.89854 | 10.52175 | 36120 ft | 467 kts | 218° |
| 2026-04-25 20:24 | 49.84427 | 10.46633 | 36113 ft | 467 kts | 218° |
| 2026-04-25 20:25 | 49.78999 | 10.41110 | 36121 ft | 466 kts | 218° |
| 2026-04-25 20:25 | 49.73568 | 10.35626 | 36124 ft | 466 kts | 218° |
| 2026-04-25 20:26 | 49.68138 | 10.30154 | 36124 ft | 464 kts | 218° |
| 2026-04-25 20:26 | 49.62753 | 10.24746 | 36128 ft | 464 kts | 217° |
| 2026-04-25 20:27 | 49.57324 | 10.19322 | 36133 ft | 464 kts | 217° |
| 2026-04-25 20:27 | 49.51891 | 10.13885 | 36122 ft | 464 kts | 217° |
| 2026-04-25 20:28 | 49.46509 | 10.08505 | 36137 ft | 465 kts | 217° |
| 2026-04-25 20:28 | 49.41073 | 10.03096 | 36138 ft | 465 kts | 217° |
| 2026-04-25 20:29 | 49.35638 | 9.97708 | 36138 ft | 464 kts | 217° |
| 2026-04-25 20:29 | 49.30237 | 9.92363 | 36133 ft | 464 kts | 217° |
| 2026-04-25 20:30 | 49.24799 | 9.87002 | 36140 ft | 465 kts | 217° |
| 2026-04-25 20:30 | 49.19347 | 9.81648 | 36141 ft | 464 kts | 217° |
| 2026-04-25 20:31 | 49.13905 | 9.76314 | 36137 ft | 464 kts | 217° |
| 2026-04-25 20:31 | 49.08491 | 9.71016 | 36139 ft | 464 kts | 217° |
| 2026-04-25 20:32 | 49.03044 | 9.65699 | 36139 ft | 464 kts | 217° |
| 2026-04-25 20:32 | 48.97595 | 9.60396 | 36138 ft | 464 kts | 217° |
| 2026-04-25 20:33 | 48.92152 | 9.55112 | 36139 ft | 464 kts | 217° |
| 2026-04-25 20:33 | 48.88531 | 9.51605 | 36136 ft | 464 kts | 217° |
| 2026-04-25 20:34 | 48.81274 | 9.44585 | 36137 ft | 465 kts | 217° |
| 2026-04-25 20:34 | 48.75801 | 9.39308 | 36140 ft | 465 kts | 216° |
| 2026-04-25 20:35 | 48.70323 | 9.34041 | 36133 ft | 465 kts | 216° |
| 2026-04-25 20:35 | 48.64903 | 9.28846 | 36139 ft | 465 kts | 216° |
| 2026-04-25 20:36 | 48.59008 | 9.24667 | 36141 ft | 473 kts | 200° |
| 2026-04-25 20:36 | 48.52680 | 9.21899 | 36138 ft | 473 kts | 200° |
| 2026-04-25 20:37 | 48.46351 | 9.19110 | 36143 ft | 473 kts | 200° |
| 2026-04-25 20:37 | 48.40053 | 9.16329 | 36146 ft | 473 kts | 200° |
| 2026-04-25 20:38 | 48.33737 | 9.13560 | 36146 ft | 473 kts | 200° |
| 2026-04-25 20:38 | 48.27389 | 9.10787 | 36147 ft | 473 kts | 199° |
| 2026-04-25 20:39 | 48.21078 | 9.08027 | 36153 ft | 473 kts | 199° |
| 2026-04-25 20:39 | 48.16887 | 9.06203 | 36153 ft | 473 kts | 199° |
| 2026-04-25 20:40 | 48.08463 | 9.02557 | 36155 ft | 473 kts | 199° |
| 2026-04-25 20:40 | 48.02117 | 8.99823 | 36155 ft | 473 kts | 199° |
| 2026-04-25 20:41 | 47.95827 | 8.97108 | 36158 ft | 473 kts | 199° |
| 2026-04-25 20:41 | 47.89499 | 8.94362 | 36273 ft | 473 kts | 199° |
| 2026-04-25 20:42 | 47.86342 | 8.92998 | 36395 ft | 472 kts | 199° |
| 2026-04-25 20:42 | 47.83186 | 8.91647 | 36522 ft | 472 kts | 199° |
| 2026-04-25 20:42 | 47.80029 | 8.90303 | 36653 ft | 471 kts | 199° |
| 2026-04-25 20:42 | 47.76882 | 8.88943 | 36781 ft | 470 kts | 200° |
| 2026-04-25 20:43 | 47.73766 | 8.87487 | 36901 ft | 469 kts | 201° |
| 2026-04-25 20:43 | 47.70674 | 8.85949 | 37068 ft | 467 kts | 202° |
| 2026-04-25 20:43 | 47.64560 | 8.82812 | 37158 ft | 467 kts | 202° |
| 2026-04-25 20:44 | 47.58392 | 8.79694 | 37159 ft | 467 kts | 201° |
| 2026-04-25 20:44 | 47.52202 | 8.76653 | 37162 ft | 467 kts | 201° |
| 2026-04-25 20:45 | 47.46057 | 8.73666 | 37159 ft | 467 kts | 201° |
| 2026-04-25 20:45 | 47.39876 | 8.70655 | 37168 ft | 468 kts | 201° |
| 2026-04-25 20:46 | 47.33727 | 8.67643 | 37176 ft | 468 kts | 201° |
| 2026-04-25 20:46 | 47.27536 | 8.64622 | 37175 ft | 468 kts | 201° |
| 2026-04-25 20:47 | 47.22357 | 8.62105 | 37169 ft | 469 kts | 201° |
| 2026-04-25 20:47 | 47.16143 | 8.59108 | 36747 ft | 471 kts | 201° |
| 2026-04-25 20:48 | 47.13069 | 8.57627 | 36095 ft | 469 kts | 201° |
| 2026-04-25 20:48 | 47.09971 | 8.56135 | 35640 ft | 468 kts | 201° |
| 2026-04-25 20:48 | 47.03633 | 8.53867 | 35620 ft | 474 kts | 188° |
| 2026-04-25 20:49 | 47.00334 | 8.53495 | 35118 ft | 474 kts | 189° |
| 2026-04-25 20:49 | 46.97096 | 8.52922 | 34639 ft | 475 kts | 184° |
| 2026-04-25 20:49 | 46.93786 | 8.53108 | 34166 ft | 478 kts | 177° |
| 2026-04-25 20:49 | 46.90454 | 8.53332 | 33614 ft | 477 kts | 185° |
| 2026-04-25 20:50 | 46.87126 | 8.53090 | 33077 ft | 479 kts | 186° |
| 2026-04-25 20:50 | 46.83802 | 8.52763 | 32537 ft | 480 kts | 187° |
| 2026-04-25 20:50 | 46.80467 | 8.52392 | 32182 ft | 481 kts | 187° |
| 2026-04-25 20:50 | 46.77115 | 8.52007 | 32112 ft | 482 kts | 187° |
| 2026-04-25 20:51 | 46.73802 | 8.51637 | 31635 ft | 484 kts | 187° |
| 2026-04-25 20:51 | 46.70438 | 8.51285 | 31132 ft | 485 kts | 186° |
| 2026-04-25 20:51 | 46.67058 | 8.50955 | 30639 ft | 487 kts | 186° |
| 2026-04-25 20:51 | 46.63671 | 8.50639 | 30133 ft | 487 kts | 186° |
| 2026-04-25 20:52 | 46.60284 | 8.50327 | 29559 ft | 488 kts | 186° |
| 2026-04-25 20:52 | 46.58026 | 8.50119 | 29194 ft | 490 kts | 186° |
| 2026-04-25 20:52 | 46.53455 | 8.49702 | 28423 ft | 494 kts | 186° |
| 2026-04-25 20:52 | 46.50013 | 8.49385 | 27710 ft | 496 kts | 186° |
| 2026-04-25 20:53 | 46.46544 | 8.49062 | 26935 ft | 498 kts | 186° |
| 2026-04-25 20:53 | 46.43139 | 8.48740 | 26181 ft | 488 kts | 186° |
| 2026-04-25 20:53 | 46.39719 | 8.48409 | 25441 ft | 496 kts | 186° |
| 2026-04-25 20:53 | 46.36335 | 8.48077 | 24728 ft | 485 kts | 186° |
| 2026-04-25 20:54 | 46.33045 | 8.47763 | 24054 ft | 462 kts | 186° |
| 2026-04-25 20:54 | 46.29908 | 8.47472 | 23497 ft | 440 kts | 185° |
| 2026-04-25 20:54 | 46.26990 | 8.47322 | 22870 ft | 424 kts | 178° |
| 2026-04-25 20:54 | 46.23994 | 8.47714 | 22193 ft | 410 kts | 175° |
| 2026-04-25 20:55 | 46.21192 | 8.48115 | 21560 ft | 403 kts | 175° |
| 2026-04-25 20:55 | 46.18409 | 8.48508 | 20950 ft | 398 kts | 175° |
| 2026-04-25 20:55 | 46.15692 | 8.48890 | 20344 ft | 394 kts | 175° |
| 2026-04-25 20:55 | 46.12968 | 8.49274 | 19763 ft | 392 kts | 175° |
| 2026-04-25 20:56 | 46.10311 | 8.49947 | 19244 ft | 381 kts | 161° |
| 2026-04-25 20:56 | 46.07889 | 8.51246 | 19064 ft | 367 kts | 159° |